Time;durP1;ratioP1;P1;durP2;ratioP2;P2;SDS_P1;SDS_P2;PMS_P1;PMS_P2;Temp;Humidity;BMP_temperature;BMP_pressure;BME280_temperature;BME280_humidity;BME280_pressure;Samples;Min_cycle;Max_cycle;Signal;HPM_P1;HPM_P2
2022/06/04 00:03:35;;;;;;;7.68;3.08;;;12.70;99.90;;;;;;21046468;28;20057;-58
2022/06/04 00:24:00;;;;;;;11.48;4.55;;;12.20;99.90;;;;;;21045988;28;20031;-58
2022/06/04 00:34:04;;;;;;;8.45;3.55;;;12.00;99.90;;;;;;21045120;28;20040;-58
2022/06/04 00:44:10;;;;;;;9.55;2.92;;;11.90;99.90;;;;;;20967555;28;20045;-58
2022/06/04 00:54:13;;;;;;;7.72;2.15;;;11.90;99.90;;;;;;20961174;28;20106;-55
2022/06/04 01:15:14;;;;;;;8.88;2.88;;;11.80;99.90;;;;;;20976772;28;20037;-55
2022/06/04 01:25:34;;;;;;;8.23;2.70;;;11.70;99.90;;;;;;20977193;28;20062;-55
2022/06/04 01:36:06;;;;;;;7.18;3.55;;;11.60;99.90;;;;;;20975783;28;20040;-56
2022/06/04 01:46:14;;;;;;;5.53;2.47;;;11.70;99.90;;;;;;21047799;28;20044;-54
2022/06/04 01:56:23;;;;;;;8.82;5.00;;;11.80;99.90;;;;;;21074587;28;20135;-56
2022/06/04 02:06:38;;;;;;;8.00;3.40;;;11.80;99.90;;;;;;21060312;28;20070;-60
2022/06/04 02:16:51;;;;;;;18.90;5.00;;;12.10;99.90;;;;;;21072755;28;20032;-53
2022/06/04 02:26:56;;;;;;;9.23;3.83;;;12.10;99.90;;;;;;21056249;28;20378;-55
2022/06/04 02:37:06;;;;;;;5.85;3.55;;;12.20;99.90;;;;;;21054549;28;20562;-58
2022/06/04 02:47:14;;;;;;;6.82;3.00;;;12.10;99.90;;;;;;21066499;28;20044;-54
2022/06/04 02:57:17;;;;;;;4.65;1.60;;;12.00;99.90;;;;;;21070125;28;20047;-55
2022/06/04 03:07:22;;;;;;;6.05;1.52;;;11.70;99.90;;;;;;21035661;28;20066;-54
2022/06/04 03:17:25;;;;;;;12.13;2.83;;;11.50;99.90;;;;;;21067942;28;20387;-57
2022/06/04 03:27:28;;;;;;;8.52;4.15;;;11.40;99.90;;;;;;21047772;28;20048;-58
2022/06/04 03:37:30;;;;;;;3.17;1.88;;;11.80;99.90;;;;;;21061842;28;20052;-55
2022/06/04 03:47:36;;;;;;;6.88;3.15;;;11.90;99.90;;;;;;21034006;28;20036;-58
2022/06/04 03:57:52;;;;;;;11.23;2.80;;;11.90;99.90;;;;;;21034747;28;20062;-57
2022/06/04 04:07:55;;;;;;;4.28;1.95;;;12.20;99.90;;;;;;21044475;28;20036;-53
2022/06/04 04:17:57;;;;;;;10.68;3.10;;;12.10;99.90;;;;;;21062598;28;20036;-54
2022/06/04 04:28:10;;;;;;;9.48;3.95;;;12.10;99.90;;;;;;21013381;28;20378;-55
2022/06/04 04:38:13;;;;;;;4.45;2.30;;;12.10;99.90;;;;;;21038174;28;20052;-58
2022/06/04 04:48:16;;;;;;;6.72;2.22;;;12.40;99.90;;;;;;21032056;28;20066;-58
2022/06/04 04:58:18;;;;;;;3.50;1.73;;;12.60;99.90;;;;;;21043887;28;20097;-58
2022/06/04 05:08:21;;;;;;;5.00;1.50;;;12.90;99.90;;;;;;21032251;28;20326;-55
2022/06/04 05:18:23;;;;;;;3.92;1.40;;;13.20;99.90;;;;;;21037729;28;20033;-56
2022/06/04 05:28:27;;;;;;;2.03;1.20;;;13.50;99.90;;;;;;21040161;28;20820;-57
2022/06/04 05:38:34;;;;;;;3.58;1.10;;;13.70;99.90;;;;;;21049343;28;20044;-58
2022/06/04 05:48:42;;;;;;;6.13;1.20;;;13.90;99.90;;;;;;21042321;28;20031;-57
2022/06/04 05:58:50;;;;;;;2.85;1.60;;;14.00;99.90;;;;;;21072545;28;20032;-57
2022/06/04 06:08:54;;;;;;;3.60;0.98;;;14.50;99.90;;;;;;21064729;28;20081;-59
2022/06/04 06:18:58;;;;;;;4.63;0.88;;;16.60;99.90;;;;;;21071488;28;20112;-59
2022/06/04 06:29:03;;;;;;;6.07;1.27;;;20.90;99.90;;;;;;21055647;28;20559;-60
2022/06/04 06:39:06;;;;;;;4.75;1.30;;;23.40;99.90;;;;;;21076192;28;20101;-59
2022/06/04 06:49:19;;;;;;;3.80;1.10;;;25.00;99.90;;;;;;21081046;28;20044;-60
2022/06/04 06:59:24;;;;;;;5.22;2.00;;;25.10;99.70;;;;;;21091616;28;20100;-60
2022/06/04 07:09:33;;;;;;;3.45;2.58;;;24.30;99.50;;;;;;21071209;28;20104;-58
2022/06/04 07:19:36;;;;;;;5.13;2.88;;;24.00;99.90;;;;;;21087787;28;20040;-58
2022/06/04 07:29:39;;;;;;;3.05;2.50;;;24.50;99.90;;;;;;21068147;28;20070;-59
2022/06/04 07:39:41;;;;;;;3.80;2.65;;;24.60;99.90;;;;;;21069304;28;20485;-62
2022/06/04 07:49:44;;;;;;;4.00;2.30;;;25.10;99.90;;;;;;21044973;28;20028;-62
2022/06/04 07:59:46;;;;;;;4.45;2.42;;;25.60;99.90;;;;;;21055449;28;20062;-63
2022/06/04 08:09:50;;;;;;;7.38;2.40;;;25.30;98.80;;;;;;21042959;28;20032;-63
2022/06/04 08:19:53;;;;;;;4.50;3.15;;;25.50;99.90;;;;;;21025522;28;20032;-62
2022/06/04 08:29:57;;;;;;;5.07;3.13;;;25.80;99.90;;;;;;21037619;28;20036;-62
2022/06/04 08:40:00;;;;;;;7.07;2.58;;;25.80;99.90;;;;;;21035387;28;20447;-59
2022/06/04 08:50:14;;;;;;;4.40;2.95;;;25.90;98.10;;;;;;21051296;28;20489;-62
2022/06/04 09:00:30;;;;;;;4.72;3.50;;;25.30;99.90;;;;;;21032219;28;20032;-61
2022/06/04 09:11:04;;;;;;;5.30;4.10;;;24.80;99.90;;;;;;21038297;28;20385;-58
2022/06/04 09:21:10;;;;;;;5.43;3.47;;;25.00;99.90;;;;;;21034857;28;20403;-63
2022/06/04 09:31:41;;;;;;;8.85;3.65;;;25.20;99.90;;;;;;21041912;28;20028;-63
2022/06/04 09:41:51;;;;;;;7.78;4.15;;;26.00;99.90;;;;;;21061451;28;20109;-59
2022/06/04 09:51:53;;;;;;;11.40;4.43;;;26.60;99.90;;;;;;21051942;28;20074;-60
2022/06/04 10:02:02;;;;;;;9.25;4.50;;;26.60;99.90;;;;;;21041828;28;20078;-63
2022/06/04 10:12:15;;;;;;;5.00;4.03;;;26.40;99.90;;;;;;21070491;28;20032;-65
2022/06/04 10:22:18;;;;;;;11.35;5.45;;;26.90;99.90;;;;;;21051196;28;20055;-65
2022/06/04 10:32:42;;;;;;;5.93;4.15;;;27.40;99.90;;;;;;21047671;28;20040;-65
2022/06/04 10:43:01;;;;;;;8.32;4.18;;;27.40;99.90;;;;;;21044767;28;20077;-64
2022/06/04 10:53:20;;;;;;;19.98;4.50;;;27.20;99.90;;;;;;21052420;28;20097;-64
2022/06/04 11:03:44;;;;;;;7.78;4.38;;;27.60;99.90;;;;;;21053514;28;20024;-59
2022/06/04 11:13:55;;;;;;;15.10;4.72;;;27.60;99.70;;;;;;21056326;28;20040;-66
2022/06/04 11:24:19;;;;;;;10.55;4.15;;;28.30;99.90;;;;;;21039462;28;20035;-66
2022/06/04 11:34:42;;;;;;;9.23;3.92;;;29.20;98.60;;;;;;21043715;28;20044;-65
2022/06/04 11:45:08;;;;;;;9.80;3.97;;;29.10;99.20;;;;;;20723338;28;20519;-66
2022/06/04 11:55:34;;;;;;;8.93;3.23;;;28.70;98.60;;;;;;20726044;28;20147;-58
2022/06/04 12:05:58;;;;;;;5.45;3.40;;;28.10;99.60;;;;;;20724170;28;20050;-67
2022/06/04 12:16:14;;;;;;;11.15;3.92;;;28.10;99.00;;;;;;20809003;28;20074;-67
2022/06/04 12:26:26;;;;;;;7.18;3.53;;;28.30;97.50;;;;;;21045167;28;20028;-67
2022/06/04 12:36:37;;;;;;;7.88;2.58;;;28.10;98.70;;;;;;21045034;28;20113;-67
2022/06/04 12:46:40;;;;;;;5.68;2.38;;;27.90;98.30;;;;;;21037215;28;20768;-67
2022/06/04 12:56:44;;;;;;;5.88;2.47;;;28.20;96.00;;;;;;21044292;28;20036;-66
2022/06/04 13:07:16;;;;;;;6.75;2.38;;;27.40;96.10;;;;;;21061263;28;20058;-66
2022/06/04 13:17:39;;;;;;;7.63;3.47;;;26.90;95.80;;;;;;21060459;28;20040;-68
2022/06/04 13:28:22;;;;;;;8.68;3.97;;;27.20;93.40;;;;;;21060223;28;20043;-67
2022/06/04 13:38:46;;;;;;;8.32;3.88;;;28.10;96.10;;;;;;21055928;28;20093;-68
2022/06/04 13:49:18;;;;;;;12.52;5.03;;;28.40;95.40;;;;;;21046184;28;20389;-67
2022/06/04 13:59:46;;;;;;;8.20;4.97;;;28.80;94.50;;;;;;20712300;28;20207;-67
2022/06/04 14:09:54;;;;;;;9.50;4.35;;;28.60;94.10;;;;;;20750072;28;20050;-68
2022/06/04 14:20:22;;;;;;;9.95;5.03;;;29.00;94.30;;;;;;20732711;28;20066;-67
2022/06/04 14:30:41;;;;;;;10.80;6.13;;;29.60;92.60;;;;;;20805533;28;20044;-67
2022/06/04 14:40:59;;;;;;;11.40;5.63;;;30.10;92.20;;;;;;21055542;28;20044;-67
2022/06/04 14:51:42;;;;;;;10.10;5.07;;;30.40;92.00;;;;;;21048673;28;20149;-68
2022/06/04 15:01:57;;;;;;;12.60;6.25;;;30.40;90.30;;;;;;21046401;28;20051;-68
2022/06/04 15:12:18;;;;;;;;;;;31.10;90.20;;;;;;21075204;28;20037;-67
2022/06/04 15:22:26;;;;;;;12.57;5.40;;;31.10;88.10;;;;;;21067232;28;19945;-67
2022/06/04 15:43:19;;;;;;;11.70;6.80;;;31.20;87.60;;;;;;21056521;28;20405;-66
2022/06/04 16:04:02;;;;;;;11.40;5.13;;;30.10;86.90;;;;;;21046004;28;20492;-64
2022/06/04 16:14:40;;;;;;;16.92;5.15;;;27.70;90.80;;;;;;21046387;28;20085;-63
2022/06/04 16:25:04;;;;;;;8.45;4.47;;;25.30;94.10;;;;;;20706669;28;20069;-63
2022/06/04 16:35:10;;;;;;;10.15;3.53;;;24.50;94.10;;;;;;20706318;28;20568;-63
2022/06/04 16:45:26;;;;;;;11.45;3.05;;;24.30;95.10;;;;;;20794416;28;20103;-55
2022/06/04 16:55:34;;;;;;;13.13;2.17;;;23.70;93.40;;;;;;20906245;28;20040;-53
2022/06/04 17:06:10;;;;;;;13.50;2.22;;;23.10;92.00;;;;;;21052063;28;20381;-61
2022/06/04 17:16:21;;;;;;;24.05;3.45;;;23.00;91.30;;;;;;21018562;28;20049;-61
2022/06/04 17:26:42;;;;;;;24.33;11.20;;;23.00;89.80;;;;;;21003602;28;20129;-60
2022/06/04 17:37:09;;;;;;;11.73;2.20;;;23.10;90.40;;;;;;21007323;28;21358;-53
2022/06/04 17:47:12;;;;;;;8.70;1.90;;;22.90;93.50;;;;;;20959482;28;20067;-52
2022/06/04 17:57:15;;;;;;;12.75;2.80;;;22.40;89.80;;;;;;20958446;28;20094;-60
2022/06/04 18:07:19;;;;;;;11.68;2.63;;;22.30;91.70;;;;;;20974655;28;20097;-60
2022/06/04 18:17:22;;;;;;;10.43;2.20;;;21.60;90.00;;;;;;20972683;28;20090;-59
2022/06/04 18:27:26;;;;;;;14.52;1.75;;;21.50;91.20;;;;;;20971717;28;20036;-60
2022/06/04 18:37:29;;;;;;;8.82;1.27;;;21.50;90.30;;;;;;20962575;28;20048;-59
2022/06/04 18:57:57;;;;;;;21.85;2.38;;;21.00;91.20;;;;;;21026353;28;20093;-60
2022/06/04 19:08:16;;;;;;;10.48;2.55;;;21.00;91.70;;;;;;21041941;28;20032;-60
2022/06/04 19:18:19;;;;;;;8.73;1.83;;;21.10;90.80;;;;;;21028393;28;20145;-55
2022/06/04 19:28:22;;;;;;;7.93;2.17;;;21.30;88.50;;;;;;21032500;28;20105;-60
2022/06/04 19:38:25;;;;;;;9.40;2.33;;;20.90;93.00;;;;;;21026140;28;20060;-60
2022/06/04 19:48:30;;;;;;;15.23;1.90;;;19.50;95.30;;;;;;21063495;28;20450;-53
2022/06/04 19:58:32;;;;;;;7.95;1.77;;;18.80;94.70;;;;;;21050147;28;20043;-59
2022/06/04 20:08:37;;;;;;;10.35;2.45;;;18.80;95.60;;;;;;21043994;28;20393;-69
2022/06/04 20:18:44;;;;;;;17.50;2.28;;;18.30;97.40;;;;;;21031689;28;20035;-69
2022/06/04 20:28:47;;;;;;;9.38;2.47;;;17.50;97.10;;;;;;21061752;28;20485;-68
2022/06/04 20:38:50;;;;;;;11.32;2.58;;;17.30;99.90;;;;;;21023442;28;20044;-69
2022/06/04 20:48:55;;;;;;;14.77;2.03;;;17.50;98.70;;;;;;21038108;28;20397;-66
2022/06/04 20:59:00;;;;;;;16.75;4.95;;;17.70;97.90;;;;;;21049863;28;20227;-64
2022/06/04 21:09:07;;;;;;;17.13;6.25;;;17.30;99.90;;;;;;21044295;28;20465;-64
2022/06/04 21:19:13;;;;;;;21.27;9.00;;;16.80;99.90;;;;;;21020986;28;20067;-67
2022/06/04 21:29:17;;;;;;;25.35;12.32;;;16.30;99.90;;;;;;21042006;28;20030;-66
2022/06/04 21:39:23;;;;;;;18.25;11.43;;;15.90;99.90;;;;;;21051152;28;20036;-65
2022/06/04 21:49:26;;;;;;;17.45;8.07;;;15.80;99.90;;;;;;21060480;28;20665;-58
2022/06/04 21:59:29;;;;;;;14.85;2.65;;;15.70;99.90;;;;;;21061362;28;20040;-52
2022/06/04 22:09:32;;;;;;;11.52;2.45;;;16.70;99.90;;;;;;21059354;28;20501;-58
2022/06/04 22:19:40;;;;;;;14.07;2.80;;;17.40;99.90;;;;;;21078001;28;20057;-58
2022/06/04 22:29:43;;;;;;;9.65;4.50;;;18.30;99.90;;;;;;21060548;28;20044;-57
2022/06/04 22:39:46;;;;;;;10.73;2.10;;;18.30;99.90;;;;;;21074724;28;20056;-54
2022/06/04 22:49:49;;;;;;;13.25;2.10;;;17.80;99.90;;;;;;21058297;28;20546;-52
2022/06/04 22:59:54;;;;;;;7.63;1.33;;;17.70;99.90;;;;;;21058128;28;20561;-53
2022/06/04 23:30:41;;;;;;;10.60;2.08;;;17.40;99.90;;;;;;21055685;28;20032;-59
2022/06/04 23:40:44;;;;;;;13.13;2.50;;;18.40;99.90;;;;;;21053162;28;20125;-55
2022/06/04 23:50:49;;;;;;;6.95;1.88;;;19.20;99.40;;;;;;21054022;28;20482;-58
